Thunder radar more information blitzortung!


Radar de pluja more information rain snow radar


Visita la nostra xarxa de llocs de meteo:

Template documentation
and downloads

And another site



No particular awareness of the weather is required.    There are no Weather-warnings

Pagina Historial Weather Underground text

Diari Resum May 30, 2016 Unitats:  Mètric    Imperial   Tant
« Previous Dia
SegĂźent Dia »
Diari Setmana Mensual Anual Personalitzada
  Maxima: Minima: Media:
Temperatura: 24.4 °C 12.8 °C 19.3 °C
Punt de rosada: 11.9 °C 7.1 °C 9.9 °C
Humitat: 76 % 38 % 56 %
Wind Speed: 18.5 km/h 0.0 km/h 6.8 km/h
RĂ fegues de vent: 18.5 km/h - -
Vent:- - SE
Pression baro: 1018.8 hPa 1012.8 hPa -
Precipitacions: 0.0 mm    
Historical Graphs
 
 
Dades de taula per May 30, 2016
Temps Temperatura Punt de rosada Pression baro Vent Wind Speed RĂ fegues de vent Humitat Rainfall Rate (Hourly)
00:00 13.7 °C 7.4 °C 1015.8 hPa Calm   1.6 km/h 66 % 0.0 mm
00:10 13.6 °C 7.4 °C 1015.8 hPa Calm   1.6 km/h 66 % 0.0 mm
00:20 13.5 °C 7.5 °C 1015.8 hPa NE 3.2 km/h 3.2 km/h 67 % 0.0 mm
00:30 13.3 °C 7.3 °C 1015.8 hPa Calm   1.6 km/h 67 % 0.0 mm
00:40 13.1 °C 7.1 °C 1015.8 hPa Calm   1.6 km/h 67 % 0.0 mm
00:50 13.0 °C 7.2 °C 1015.8 hPa South 1.6 km/h 3.2 km/h 68 % 0.0 mm
01:00 13.0 °C 7.2 °C 1015.8 hPa NE 1.6 km/h 3.2 km/h 68 % 0.0 mm
01:10 13.1 °C 7.3 °C 1015.8 hPa NE 1.6 km/h 4.8 km/h 68 % 0.0 mm
01:20 12.8 °C 7.1 °C 1015.8 hPa ENE 1.6 km/h 4.8 km/h 68 % 0.0 mm
01:30 13.0 °C 7.2 °C 1015.8 hPa NE 3.2 km/h 4.8 km/h 68 % 0.0 mm
01:40 13.0 °C 7.2 °C 1016.8 hPa NE 1.6 km/h 4.8 km/h 68 % 0.0 mm
01:50 13.1 °C 7.3 °C 1016.8 hPa NNE 3.2 km/h 4.8 km/h 68 % 0.0 mm
02:00 13.0 °C 7.2 °C 1016.8 hPa North 1.6 km/h 3.2 km/h 68 % 0.0 mm
02:10 13.2 °C 7.4 °C 1016.8 hPa NNE 3.2 km/h 4.8 km/h 68 % 0.0 mm
02:20 12.9 °C 7.1 °C 1016.8 hPa NW 1.6 km/h 4.8 km/h 68 % 0.0 mm
02:30 13.0 °C 7.2 °C 1016.8 hPa Calm   3.2 km/h 68 % 0.0 mm
02:40 13.1 °C 7.6 °C 1016.8 hPa Calm   3.2 km/h 69 % 0.0 mm
02:50 13.6 °C 7.8 °C 1017.8 hPa WSW 3.2 km/h 4.8 km/h 68 % 0.0 mm
03:00 14.0 °C 8.4 °C 1017.8 hPa WSW 1.6 km/h 3.2 km/h 69 % 0.0 mm
03:10 14.8 °C 8.9 °C 1017.8 hPa SW 1.6 km/h 3.2 km/h 68 % 0.0 mm
03:20 15.6 °C 9.3 °C 1017.8 hPa NW 3.2 km/h 3.2 km/h 66 % 0.0 mm
03:30 16.4 °C 9.8 °C 1017.8 hPa NNW 3.2 km/h 3.2 km/h 65 % 0.0 mm
03:40 17.0 °C 9.7 °C 1016.8 hPa NNE 4.8 km/h 4.8 km/h 62 % 0.0 mm
03:50 16.9 °C 9.6 °C 1017.8 hPa NE 3.2 km/h 4.8 km/h 62 % 0.0 mm
04:00 16.9 °C 9.6 °C 1017.8 hPa NE 1.6 km/h 6.4 km/h 62 % 0.0 mm
04:10 17.2 °C 9.6 °C 1017.8 hPa NE 1.6 km/h 3.2 km/h 61 % 0.0 mm
04:20 17.1 °C 9.3 °C 1016.8 hPa ENE 4.8 km/h 6.4 km/h 60 % 0.0 mm
04:30 17.5 °C 9.4 °C 1016.8 hPa ENE 3.2 km/h 4.8 km/h 59 % 0.0 mm
04:40 18.5 °C 10.1 °C 1017.8 hPa ESE 1.6 km/h 4.8 km/h 58 % 0.0 mm
04:50 18.7 °C 10.0 °C 1017.8 hPa SSW 3.2 km/h 4.8 km/h 57 % 0.0 mm
05:00 18.4 °C 9.4 °C 1017.8 hPa SW 8.0 km/h 8.0 km/h 56 % 0.0 mm
05:10 19.2 °C 9.7 °C 1016.8 hPa ENE 1.6 km/h 6.4 km/h 54 % 0.0 mm
05:20 19.5 °C 9.7 °C 1017.8 hPa NE 4.8 km/h 9.7 km/h 53 % 0.0 mm
05:30 20.5 °C 10.3 °C 1017.8 hPa NE 4.8 km/h 8.0 km/h 52 % 0.0 mm
05:40 20.9 °C 10.1 °C 1017.8 hPa West 4.8 km/h 9.7 km/h 50 % 0.0 mm
05:50 20.3 °C 9.2 °C 1017.8 hPa WSW 4.8 km/h 6.4 km/h 49 % 0.0 mm
10:58 20.4 °C 9.3 °C 1017.8 hPa SW 5.6 km/h 6.4 km/h 49 % 0.0 mm
11:03 20.5 °C 9.4 °C 1017.8 hPa WSW 6.4 km/h 6.4 km/h 49 % 0.0 mm
11:08 20.7 °C 9.6 °C 1017.8 hPa SW 16.7 km/h 16.7 km/h 49 % 0.0 mm
11:13 21.0 °C 9.6 °C 1017.8 hPa SW 9.3 km/h 9.3 km/h 48 % 0.0 mm
11:18 21.1 °C 9.7 °C 1016.8 hPa West 7.4 km/h 7.4 km/h 48 % 0.0 mm
11:28 21.6 °C 10.1 °C 1016.8 hPa South 13.0 km/h 13.0 km/h 48 % 0.0 mm
11:33 21.6 °C 10.1 °C 1016.8 hPa SW 9.3 km/h 9.3 km/h 48 % 0.0 mm
11:38 21.2 °C 9.4 °C 1016.8 hPa WSW 11.1 km/h 11.1 km/h 47 % 0.0 mm
11:43 21.2 °C 9.4 °C 1016.8 hPa SSW 5.6 km/h 5.6 km/h 47 % 0.0 mm
11:49 21.2 °C 9.4 °C 1018.8 hPa SSW 5.0 km/h 5.0 km/h 47 % 0.0 mm
11:54 21.2 °C 9.4 °C 1018.8 hPa SSE 7.4 km/h 7.4 km/h 47 % 0.0 mm
11:59 21.2 °C 9.4 °C 1018.8 hPa South 7.6 km/h 7.6 km/h 47 % 0.0 mm
12:04 21.2 °C 9.4 °C 1016.8 hPa SE 9.3 km/h 9.3 km/h 47 % 0.0 mm
12:09 21.2 °C 9.4 °C 1016.8 hPa NNE 3.7 km/h 3.7 km/h 47 % 0.0 mm
12:14 21.2 °C 9.4 °C 1016.8 hPa WSW 9.3 km/h 9.3 km/h 47 % 0.0 mm
12:19 21.2 °C 9.4 °C 1017.8 hPa SSW 5.6 km/h 5.6 km/h 47 % 0.0 mm
12:24 21.2 °C 9.4 °C 1017.8 hPa NNE 5.6 km/h 5.6 km/h 47 % 0.0 mm
12:29 21.2 °C 9.4 °C 1017.8 hPa SW 11.1 km/h 11.1 km/h 47 % 0.0 mm
12:34 21.2 °C 9.4 °C 1016.8 hPa SW 5.6 km/h 5.6 km/h 47 % 0.0 mm
12:39 21.2 °C 9.4 °C 1016.8 hPa WNW 9.0 km/h 9.0 km/h 47 % 0.0 mm
12:44 21.2 °C 9.4 °C 1016.8 hPa East 5.8 km/h 5.8 km/h 47 % 0.0 mm
12:49 23.6 °C 9.9 °C 1016.8 hPa SW 7.4 km/h 7.4 km/h 42 % 0.0 mm
12:54 23.6 °C 9.9 °C 1016.8 hPa SW 12.6 km/h 12.6 km/h 42 % 0.0 mm
12:59 23.6 °C 9.9 °C 1016.8 hPa NW 5.6 km/h 5.6 km/h 42 % 0.0 mm
13:14 23.1 °C 8.0 °C 1015.8 hPa West 13.0 km/h 13.0 km/h 38 % 0.0 mm
13:19 23.4 °C 8.7 °C 1015.8 hPa SW 7.9 km/h 7.9 km/h 39 % 0.0 mm
13:24 23.3 °C 8.6 °C 1015.8 hPa SSW 7.4 km/h 7.4 km/h 39 % 0.0 mm
13:29 23.3 °C 8.6 °C 1015.8 hPa WSW 7.4 km/h 7.4 km/h 39 % 0.0 mm
13:34 23.9 °C 9.1 °C 1014.8 hPa West 7.4 km/h 7.4 km/h 39 % 0.0 mm
13:39 24.4 °C 9.6 °C 1014.8 hPa SSW 5.6 km/h 5.6 km/h 39 % 0.0 mm
13:44 24.4 °C 9.6 °C 1014.8 hPa WNW 9.3 km/h 9.3 km/h 39 % 0.0 mm
13:49 24.4 °C 9.6 °C 1014.8 hPa ENE 7.4 km/h 7.4 km/h 39 % 0.0 mm
13:54 24.4 °C 9.6 °C 1014.8 hPa SW 1.9 km/h 1.9 km/h 39 % 0.0 mm
14:04 23.7 °C 9.7 °C 1014.8 hPa ENE 5.6 km/h 5.6 km/h 41 % 0.0 mm
14:09 23.7 °C 9.7 °C 1014.8 hPa ESE 11.1 km/h 11.1 km/h 41 % 0.0 mm
14:14 22.2 °C 10.0 °C 1014.8 hPa ESE 14.8 km/h 14.8 km/h 46 % 0.0 mm
14:19 22.5 °C 10.3 °C 1014.8 hPa SW 5.6 km/h 5.6 km/h 46 % 0.0 mm
14:24 22.7 °C 10.8 °C 1014.8 hPa ESE 9.3 km/h 9.3 km/h 47 % 0.0 mm
14:29 22.1 °C 10.6 °C 1014.8 hPa ESE 13.7 km/h 13.7 km/h 48 % 0.0 mm
14:34 21.9 °C 10.7 °C 1014.8 hPa ENE 16.7 km/h 16.7 km/h 49 % 0.0 mm
14:39 21.6 °C 10.7 °C 1014.8 hPa East 13.0 km/h 13.0 km/h 50 % 0.0 mm
14:44 21.5 °C 10.9 °C 1014.8 hPa South 13.0 km/h 13.0 km/h 51 % 0.0 mm
14:49 21.5 °C 11.2 °C 1014.8 hPa ESE 13.0 km/h 13.0 km/h 52 % 0.0 mm
14:54 21.8 °C 11.5 °C 1014.8 hPa East 7.4 km/h 8.7 km/h 52 % 0.0 mm
14:59 21.8 °C 11.5 °C 1014.8 hPa SE 16.7 km/h 16.7 km/h 52 % 0.0 mm
15:04 21.8 °C 11.5 °C 1014.8 hPa SSE 13.0 km/h 13.0 km/h 52 % 0.0 mm
15:09 22.2 °C 11.9 °C 1014.8 hPa ESE 16.7 km/h 16.7 km/h 52 % 0.0 mm
15:14 21.7 °C 11.4 °C 1014.8 hPa ESE 16.7 km/h 16.7 km/h 52 % 0.0 mm
15:19 21.7 °C 11.7 °C 1014.8 hPa ESE 16.7 km/h 16.7 km/h 53 % 0.0 mm
15:24 21.8 °C 11.8 °C 1014.8 hPa ENE 13.0 km/h 13.0 km/h 53 % 0.0 mm
15:29 21.8 °C 11.8 °C 1014.8 hPa SE 9.3 km/h 9.5 km/h 53 % 0.0 mm
15:34 22.0 °C 11.7 °C 1014.8 hPa ESE 11.1 km/h 11.1 km/h 52 % 0.0 mm
15:39 22.0 °C 11.7 °C 1014.8 hPa NNE 13.0 km/h 13.0 km/h 52 % 0.0 mm
15:44 21.9 °C 11.6 °C 1014.8 hPa ESE 9.3 km/h 10.0 km/h 52 % 0.0 mm
15:49 21.9 °C 11.6 °C 1014.8 hPa ESE 16.7 km/h 16.7 km/h 52 % 0.0 mm
15:54 21.7 °C 11.1 °C 1014.8 hPa ESE 14.0 km/h 14.0 km/h 51 % 0.0 mm
15:59 21.5 °C 10.9 °C 1014.8 hPa ENE 13.0 km/h 13.0 km/h 51 % 0.0 mm
16:04 21.6 °C 11.0 °C 1013.8 hPa East 9.5 km/h 9.5 km/h 51 % 0.0 mm
16:09 21.7 °C 11.1 °C 1013.8 hPa East 13.0 km/h 13.0 km/h 51 % 0.0 mm
16:14 21.9 °C 11.0 °C 1013.8 hPa ENE 11.1 km/h 11.1 km/h 50 % 0.0 mm
16:19 21.9 °C 11.0 °C 1013.8 hPa ENE 11.1 km/h 11.1 km/h 50 % 0.0 mm
16:24 22.0 °C 11.1 °C 1013.8 hPa ESE 9.7 km/h 9.7 km/h 50 % 0.0 mm
16:34 21.9 °C 10.7 °C 1013.8 hPa ENE 11.1 km/h 11.1 km/h 49 % 0.0 mm
16:39 21.8 °C 10.6 °C 1013.8 hPa East 7.4 km/h 7.4 km/h 49 % 0.0 mm
16:44 21.7 °C 10.5 °C 1013.8 hPa East 9.3 km/h 9.3 km/h 49 % 0.0 mm
16:49 21.6 °C 10.4 °C 1013.8 hPa ENE 7.4 km/h 7.4 km/h 49 % 0.0 mm
16:54 21.6 °C 10.4 °C 1013.8 hPa ESE 12.2 km/h 12.2 km/h 49 % 0.0 mm
16:59 21.6 °C 10.4 °C 1013.8 hPa ESE 9.3 km/h 9.3 km/h 49 % 0.0 mm
17:04 21.9 °C 10.7 °C 1013.8 hPa West 7.4 km/h 7.4 km/h 49 % 0.0 mm
17:09 22.3 °C 10.8 °C 1013.8 hPa West 11.1 km/h 11.1 km/h 48 % 0.0 mm
17:14 23.0 °C 10.8 °C 1013.8 hPa WSW 9.3 km/h 9.3 km/h 46 % 0.0 mm
17:19 22.8 °C 10.9 °C 1013.8 hPa WSW 9.7 km/h 9.7 km/h 47 % 0.0 mm
17:24 22.8 °C 10.6 °C 1013.8 hPa SSW 8.7 km/h 8.7 km/h 46 % 0.0 mm
17:29 23.1 °C 10.5 °C 1013.8 hPa WSW 6.4 km/h 6.4 km/h 45 % 0.0 mm
17:34 23.7 °C 10.4 °C 1012.8 hPa SW 18.5 km/h 18.5 km/h 43 % 0.0 mm
17:39 23.7 °C 10.0 °C 1012.8 hPa WSW 9.3 km/h 9.3 km/h 42 % 0.0 mm
17:44 23.0 °C 9.7 °C 1012.8 hPa SSE 3.7 km/h 3.7 km/h 43 % 0.0 mm
17:49 23.1 °C 9.8 °C 1012.8 hPa WSW 3.7 km/h 3.7 km/h 43 % 0.0 mm
17:54 23.4 °C 10.1 °C 1012.8 hPa East 8.7 km/h 8.7 km/h 43 % 0.0 mm
17:59 22.8 °C 9.9 °C 1012.8 hPa SW 13.0 km/h 13.0 km/h 44 % 0.0 mm
18:04 22.2 °C 9.4 °C 1013.8 hPa SW 13.0 km/h 13.0 km/h 44 % 0.0 mm
18:09 22.1 °C 9.3 °C 1013.8 hPa SW 7.4 km/h 7.4 km/h 44 % 0.0 mm
18:19 21.8 °C 9.0 °C 1013.8 hPa WSW 13.0 km/h 13.0 km/h 44 % 0.0 mm
18:24 21.8 °C 9.3 °C 1013.8 hPa West 10.3 km/h 10.3 km/h 45 % 0.0 mm
18:29 21.6 °C 9.2 °C 1013.8 hPa SW 9.3 km/h 9.3 km/h 45 % 0.0 mm
18:34 21.8 °C 9.3 °C 1013.8 hPa WSW 11.1 km/h 11.1 km/h 45 % 0.0 mm
18:39 21.7 °C 9.2 °C 1013.8 hPa WSW 9.3 km/h 9.3 km/h 45 % 0.0 mm
18:44 21.6 °C 9.2 °C 1013.8 hPa WSW 11.1 km/h 11.1 km/h 45 % 0.0 mm
18:49 21.6 °C 9.5 °C 1014.8 hPa SW 5.8 km/h 5.8 km/h 46 % 0.0 mm
18:54 21.8 °C 9.7 °C 1014.8 hPa SW 7.9 km/h 7.9 km/h 46 % 0.0 mm
18:59 21.8 °C 9.7 °C 1014.8 hPa SSW 6.9 km/h 6.9 km/h 46 % 0.0 mm
19:04 21.5 °C 9.7 °C 1014.8 hPa SW 7.4 km/h 7.6 km/h 47 % 0.0 mm
19:09 21.2 °C 9.4 °C 1014.8 hPa SW 5.6 km/h 5.6 km/h 47 % 0.0 mm
19:14 21.1 °C 9.3 °C 1014.8 hPa SW 11.1 km/h 11.1 km/h 47 % 0.0 mm
19:19 21.1 °C 9.3 °C 1014.8 hPa SW 9.3 km/h 9.3 km/h 47 % 0.0 mm
19:24 21.2 °C 9.7 °C 1014.8 hPa SW 7.4 km/h 7.4 km/h 48 % 0.0 mm
19:29 21.1 °C 9.7 °C 1014.8 hPa WSW 5.6 km/h 5.6 km/h 48 % 0.0 mm
19:34 21.1 °C 9.7 °C 1015.8 hPa SW 3.9 km/h 3.9 km/h 48 % 0.0 mm
19:35 15.5 °C 10.7 °C 1018.8 hPa East 4.8 km/h 4.8 km/h 73 % 0.0 mm
19:39 21.2 °C 9.7 °C 1015.8 hPa SSW 3.7 km/h 3.7 km/h 48 % 0.0 mm
19:44 21.2 °C 9.7 °C 1015.8 hPa SW 3.7 km/h 3.7 km/h 48 % 0.0 mm
19:45 15.3 °C 10.5 °C 1018.8 hPa East 4.8 km/h 4.8 km/h 73 % 0.0 mm
19:54 20.8 °C 10.0 °C 1014.8 hPa WSW 1.9 km/h 2.3 km/h 50 % 0.0 mm
19:55 15.3 °C 10.5 °C 1018.8 hPa ENE 4.8 km/h 6.4 km/h 73 % 0.0 mm
19:59 20.8 °C 10.0 °C 1014.8 hPa SW 3.7 km/h 3.7 km/h 50 % 0.0 mm
20:04 20.8 °C 10.0 °C 1015.8 hPa SW 3.9 km/h 3.9 km/h 50 % 0.0 mm
20:05 15.4 °C 10.6 °C 1018.8 hPa East 4.8 km/h 6.4 km/h 73 % 0.0 mm
20:09 20.8 °C 10.0 °C 1015.8 hPa SW 3.7 km/h 3.7 km/h 50 % 0.0 mm
20:14 20.8 °C 10.0 °C 1015.8 hPa SW 3.9 km/h 4.2 km/h 50 % 0.0 mm
20:15 15.4 °C 10.6 °C 1018.8 hPa East 4.8 km/h 6.4 km/h 73 % 0.0 mm
20:19 20.7 °C 9.9 °C 1015.8 hPa South 1.9 km/h   50 % 0.0 mm
20:24 20.6 °C 9.8 °C 1015.8 hPa SW 5.0 km/h 5.0 km/h 50 % 0.0 mm
20:25 15.4 °C 10.4 °C 1018.8 hPa ENE 3.2 km/h 6.4 km/h 72 % 0.0 mm
20:29 20.4 °C 9.9 °C 1015.8 hPa SE 3.7 km/h 3.7 km/h 51 % 0.0 mm
20:34 20.3 °C 9.8 °C 1015.8 hPa SE 3.7 km/h 3.7 km/h 51 % 0.0 mm
20:35 15.4 °C 10.4 °C 1018.8 hPa ENE 3.2 km/h 3.2 km/h 72 % 0.0 mm
20:39 20.3 °C 9.8 °C 1015.8 hPa Calm     51 % 0.0 mm
20:44 20.3 °C 9.8 °C 1015.8 hPa NE 7.4 km/h 7.4 km/h 51 % 0.0 mm
20:49 20.0 °C 9.6 °C 1015.8 hPa ESE 11.1 km/h 11.1 km/h 51 % 0.0 mm
20:54 19.8 °C 9.7 °C 1015.8 hPa ESE 9.3 km/h 9.3 km/h 52 % 0.0 mm
20:55 15.2 °C 10.2 °C 1018.8 hPa ENE 1.6 km/h 4.8 km/h 72 % 0.0 mm
20:59 19.7 °C 9.6 °C 1015.8 hPa East 9.3 km/h 9.3 km/h 52 % 0.0 mm
21:04 19.6 °C 9.4 °C 1015.8 hPa NNE 5.6 km/h 5.6 km/h 52 % 0.0 mm
21:05 14.9 °C 10.1 °C 1018.8 hPa ENE 4.8 km/h 4.8 km/h 73 % 0.0 mm
21:09 19.5 °C 9.7 °C 1015.8 hPa ENE 7.4 km/h 7.4 km/h 53 % 0.0 mm
21:14 19.3 °C 9.8 °C 1015.8 hPa ENE 3.9 km/h 3.9 km/h 54 % 0.0 mm
21:15 14.8 °C 10.0 °C 1018.8 hPa NE 3.2 km/h 6.4 km/h 73 % 0.0 mm
21:19 19.1 °C 9.8 °C 1015.8 hPa ENE 11.1 km/h 11.1 km/h 55 % 0.0 mm
21:24 19.0 °C 10.0 °C 1015.8 hPa NE 9.3 km/h 9.3 km/h 56 % 0.0 mm
21:25 14.9 °C 10.1 °C 1018.8 hPa NE 4.8 km/h 4.8 km/h 73 % 0.0 mm
21:29 18.8 °C 10.3 °C 1015.8 hPa ENE 9.3 km/h 9.3 km/h 58 % 0.0 mm
21:34 18.8 °C 10.6 °C 1015.8 hPa ESE 11.1 km/h 11.1 km/h 59 % 0.0 mm
21:35 14.9 °C 10.1 °C 1018.8 hPa NE 3.2 km/h 6.4 km/h 73 % 0.0 mm
21:39 18.7 °C 10.5 °C 1015.8 hPa ESE 5.8 km/h 5.8 km/h 59 % 0.0 mm
21:44 18.6 °C 10.9 °C 1015.8 hPa East 9.3 km/h 9.3 km/h 61 % 0.0 mm
21:45 14.8 °C 10.0 °C 1018.8 hPa NE 3.2 km/h 3.2 km/h 73 % 0.0 mm
21:49 18.5 °C 10.8 °C 1015.8 hPa East 3.9 km/h 5.8 km/h 61 % 0.0 mm
21:54 18.3 °C 10.9 °C 1015.8 hPa ENE 11.1 km/h 11.1 km/h 62 % 0.0 mm
21:55 14.7 °C 9.9 °C 1018.8 hPa NE 3.2 km/h 3.2 km/h 73 % 0.0 mm
21:59 18.1 °C 10.9 °C 1015.8 hPa ENE 9.3 km/h 9.3 km/h 63 % 0.0 mm
22:04 17.9 °C 11.2 °C 1016.8 hPa East 11.1 km/h 11.1 km/h 65 % 0.0 mm
22:05 14.7 °C 10.1 °C 1018.8 hPa NE 3.2 km/h 4.8 km/h 74 % 0.0 mm
22:09 17.8 °C 11.3 °C 1016.8 hPa ESE 5.6 km/h 5.6 km/h 66 % 0.0 mm
22:14 17.6 °C 11.6 °C 1016.8 hPa ESE 4.7 km/h 4.7 km/h 68 % 0.0 mm
22:15 14.6 °C 10.0 °C 1018.8 hPa NE 3.2 km/h 4.8 km/h 74 % 0.0 mm
22:19 17.6 °C 11.6 °C 1017.8 hPa ESE 4.7 km/h 4.7 km/h 68 % 0.0 mm
22:24 17.5 °C 11.5 °C 1017.8 hPa ESE 4.7 km/h 4.7 km/h 68 % 0.0 mm
22:25 14.5 °C 9.9 °C 1018.8 hPa NE 1.6 km/h 4.8 km/h 74 % 0.0 mm
22:29 17.4 °C 11.4 °C 1017.8 hPa ESE 4.7 km/h 4.7 km/h 68 % 0.0 mm
22:34 17.3 °C 11.3 °C 1017.8 hPa ESE 4.7 km/h 4.7 km/h 68 % 0.0 mm
22:35 14.4 °C 9.8 °C 1018.8 hPa Calm   1.6 km/h 74 % 0.0 mm
22:39 17.2 °C 11.4 °C 1017.8 hPa ESE 4.7 km/h 4.7 km/h 69 % 0.0 mm
22:44 17.2 °C 11.4 °C 1017.8 hPa ESE 4.7 km/h 4.7 km/h 69 % 0.0 mm
22:45 14.3 °C 9.7 °C 1018.8 hPa Calm   1.6 km/h 74 % 0.0 mm
22:49 17.2 °C 11.4 °C 1017.8 hPa ESE 4.7 km/h 4.7 km/h 69 % 0.0 mm
22:54 17.1 °C 11.8 °C 1017.8 hPa ESE 4.7 km/h 4.7 km/h 71 % 0.0 mm
22:55 14.1 °C 9.3 °C 1018.8 hPa Calm     73 % 0.0 mm
22:59 17.2 °C 11.7 °C 1017.8 hPa ESE 4.7 km/h 4.7 km/h 70 % 0.0 mm
23:04 17.2 °C 11.7 °C 1017.8 hPa East 9.3 km/h 9.3 km/h 70 % 0.0 mm
23:05 14.0 °C 9.4 °C 1018.8 hPa Calm     74 % 0.0 mm
23:09 17.1 °C 11.8 °C 1017.8 hPa East 9.3 km/h 9.3 km/h 71 % 0.0 mm
23:14 17.1 °C 11.8 °C 1017.8 hPa East 9.3 km/h 9.3 km/h 71 % 0.0 mm
23:15 14.0 °C 9.4 °C 1018.8 hPa North 1.6 km/h 3.2 km/h 74 % 0.0 mm
23:20 17.1 °C 11.8 °C 1017.8 hPa East 9.3 km/h 9.3 km/h 71 % 0.0 mm
23:25 17.1 °C 11.8 °C 1017.8 hPa East 9.3 km/h 9.3 km/h 71 % 0.0 mm
23:35 16.5 °C 11.7 °C 1018.8 hPa ESE 7.4 km/h 7.4 km/h 73 % 0.0 mm
23:40 16.4 °C 11.3 °C 1018.8 hPa ENE 5.6 km/h 5.6 km/h 72 % 0.0 mm
23:45 16.2 °C 11.2 °C 1018.8 hPa East 5.6 km/h 5.6 km/h 72 % 0.0 mm
23:50 16.2 °C 11.3 °C 1018.8 hPa East 5.6 km/h 5.6 km/h 73 % 0.0 mm
23:55 13.0 °C 8.9 °C 1018.8 hPa Calm   3.2 km/h 76 % 0.0 mm
Meteo Sesrovires
Elogis d' Weather Underground - 3.5 mb

Guio original per  Jim McMurry - jmcmurry@mwt.net Adaptat per a la plantilla per  Wim van der Kuil - Leuven-Template.eu

Trobareu la nostra informacio del temps tambe a:

Weather Underground

AWEKAS